createdAt,value
2018-12-12T00:01:48.000Z,3.45
2018-12-12T00:04:15.390Z,3.47
2018-12-12T00:06:42.763Z,3.46
2018-12-12T00:09:10.059Z,3.49
2018-12-12T00:11:37.230Z,3.60
2018-12-12T00:14:04.667Z,3.52
2018-12-12T00:16:31.866Z,3.58
2018-12-12T00:18:58.974Z,3.58
2018-12-12T00:21:26.224Z,3.59
2018-12-12T00:23:53.425Z,3.63
2018-12-12T00:26:20.654Z,3.58
2018-12-12T00:28:47.778Z,3.63
2018-12-12T00:31:15.011Z,3.69
2018-12-12T00:33:42.223Z,3.64
2018-12-12T00:36:09.332Z,3.72
2018-12-12T00:38:36.508Z,3.68
2018-12-12T00:41:03.754Z,3.68
2018-12-12T00:43:30.867Z,3.64
2018-12-12T00:45:58.979Z,3.68
2018-12-12T00:48:26.090Z,3.64
2018-12-12T00:50:53.203Z,3.60
2018-12-12T00:53:20.479Z,3.58
2018-12-12T00:55:47.599Z,3.60
2018-12-12T00:58:14.882Z,3.60
2018-12-12T01:00:42.147Z,3.67
2018-12-12T01:03:09.402Z,3.65
2018-12-12T01:05:36.535Z,3.67
2018-12-12T01:08:03.792Z,3.74
2018-12-12T01:10:30.941Z,3.74
2018-12-12T01:12:58.127Z,3.69
2018-12-12T01:15:25.427Z,3.67
2018-12-12T01:17:52.572Z,3.73
2018-12-12T01:20:19.688Z,3.69
2018-12-12T01:22:46.891Z,3.71
2018-12-12T01:25:14.007Z,3.70
2018-12-12T01:27:41.143Z,3.70
2018-12-12T01:30:08.429Z,3.74
2018-12-12T01:32:35.571Z,3.74
2018-12-12T01:35:02.922Z,3.73
2018-12-12T01:37:30.908Z,3.76
2018-12-12T01:39:58.031Z,3.74
2018-12-12T01:42:25.175Z,3.74
2018-12-12T01:44:52.360Z,3.69
2018-12-12T01:47:19.502Z,3.71
2018-12-12T01:49:46.635Z,3.73
2018-12-12T01:52:13.852Z,3.65
2018-12-12T01:54:41.000Z,3.77
2018-12-12T01:57:08.143Z,3.70
2018-12-12T01:59:35.398Z,3.75
2018-12-12T02:02:02.582Z,3.70
2018-12-12T02:04:29.723Z,3.70
2018-12-12T02:06:56.967Z,3.75
2018-12-12T02:09:24.202Z,3.68
2018-12-12T02:11:51.342Z,3.74
2018-12-12T02:14:18.564Z,3.75
2018-12-12T02:16:45.819Z,3.70
2018-12-12T02:19:12.966Z,3.68
2018-12-12T02:21:40.154Z,3.68
2018-12-12T02:24:07.291Z,3.71
2018-12-12T02:26:34.411Z,3.71
2018-12-12T02:29:01.867Z,3.77
2018-12-12T02:31:29.020Z,3.70
2018-12-12T02:33:56.166Z,3.72
2018-12-12T02:36:23.364Z,3.71
2018-12-12T02:38:50.501Z,3.74
2018-12-12T02:41:17.632Z,3.84
2018-12-12T02:43:44.931Z,3.85
2018-12-12T02:46:12.085Z,3.82
2018-12-12T02:48:39.207Z,3.79
2018-12-12T02:51:06.406Z,3.81
2018-12-12T02:53:33.587Z,3.77
2018-12-12T02:56:00.709Z,3.83
2018-12-12T02:58:27.898Z,3.83
2018-12-12T03:00:55.113Z,3.81
2018-12-12T03:03:22.232Z,3.82
2018-12-12T03:05:49.446Z,3.71
2018-12-12T03:08:16.563Z,3.77
2018-12-12T03:10:43.693Z,3.77
2018-12-12T03:13:10.903Z,3.71
2018-12-12T03:15:38.039Z,3.83
2018-12-12T03:18:05.212Z,3.76
2018-12-12T03:20:32.475Z,3.88
2018-12-12T03:22:59.595Z,3.83
2018-12-12T03:25:26.706Z,3.85
2018-12-12T03:27:54.020Z,3.86
2018-12-12T03:30:21.170Z,3.85
2018-12-12T03:32:48.299Z,3.88
2018-12-12T03:35:15.590Z,3.86
2018-12-12T03:37:42.839Z,3.83
2018-12-12T03:40:10.320Z,3.92
2018-12-12T03:42:37.615Z,3.89
2018-12-12T03:45:05.216Z,3.85
2018-12-12T03:47:32.369Z,3.92
2018-12-12T03:49:59.557Z,3.83
2018-12-12T03:52:26.695Z,3.94
2018-12-12T03:54:53.842Z,4.02
2018-12-12T03:57:21.070Z,3.94
2018-12-12T03:59:48.203Z,4.02
2018-12-12T04:02:15.408Z,4.04
2018-12-12T04:04:42.681Z,3.98
2018-12-12T04:07:09.835Z,4.04
2018-12-12T04:09:37.099Z,3.96
2018-12-12T04:12:04.487Z,4.05
2018-12-12T04:14:31.633Z,4.00
2018-12-12T04:16:58.759Z,4.03
2018-12-12T04:19:26.009Z,4.09
2018-12-12T04:21:53.391Z,4.09
2018-12-12T04:24:22.253Z,4.08
2018-12-12T04:26:49.474Z,4.05
2018-12-12T04:29:16.631Z,4.05
2018-12-12T04:31:43.775Z,4.05
2018-12-12T04:34:10.966Z,4.01
2018-12-12T04:36:38.107Z,4.10
2018-12-12T04:39:06.804Z,4.13
2018-12-12T04:41:34.023Z,4.03
2018-12-12T04:44:01.262Z,4.05
2018-12-12T04:46:28.400Z,4.05
2018-12-12T04:48:55.643Z,4.06
2018-12-12T04:51:22.775Z,3.97
2018-12-12T04:53:49.916Z,4.01
2018-12-12T04:56:17.114Z,4.06
2018-12-12T04:58:44.394Z,4.13
2018-12-12T05:01:11.528Z,4.03
2018-12-12T05:03:38.892Z,4.12
2018-12-12T05:06:06.054Z,4.00
2018-12-12T05:08:34.203Z,3.94
2018-12-12T05:11:01.384Z,3.95
2018-12-12T05:13:28.502Z,4.02
2018-12-12T05:15:55.633Z,3.99
2018-12-12T05:18:22.959Z,4.00
2018-12-12T05:20:50.186Z,3.98
2018-12-12T05:23:17.424Z,3.93
2018-12-12T05:25:45.730Z,4.00
2018-12-12T05:28:12.873Z,4.04
2018-12-12T05:30:40.035Z,4.01
2018-12-12T05:33:07.218Z,3.96
2018-12-12T05:35:34.370Z,3.85
2018-12-12T05:38:01.566Z,3.69
2018-12-12T05:40:28.987Z,3.60
2018-12-12T05:42:56.119Z,3.58
2018-12-12T05:45:23.560Z,3.55
2018-12-12T05:47:50.731Z,3.30
2018-12-12T05:50:17.864Z,3.20
2018-12-12T05:52:44.987Z,3.13
2018-12-12T05:55:12.191Z,3.09
2018-12-12T05:57:40.350Z,3.03
2018-12-12T06:00:08.320Z,2.88
2018-12-12T06:02:35.531Z,2.80
2018-12-12T06:05:02.871Z,2.73
2018-12-12T06:07:30.002Z,2.60
2018-12-12T06:09:57.238Z,2.49
2018-12-12T06:12:24.584Z,2.40
2018-12-12T06:14:51.692Z,2.34
2018-12-12T06:17:18.895Z,2.26
2018-12-12T06:19:46.259Z,2.18
2018-12-12T06:22:13.711Z,2.08
2018-12-12T06:24:41.023Z,1.98
2018-12-12T06:27:08.171Z,1.91
2018-12-12T06:29:35.323Z,1.84
2018-12-12T06:32:02.686Z,1.75
2018-12-12T06:34:29.801Z,1.76
2018-12-12T06:36:57.504Z,1.76
2018-12-12T06:39:24.682Z,1.73
2018-12-12T06:41:51.804Z,1.73
2018-12-12T06:44:18.943Z,1.76
2018-12-12T06:46:46.134Z,1.80
2018-12-12T06:49:13.290Z,1.78
2018-12-12T06:51:40.418Z,1.87
2018-12-12T06:54:07.621Z,1.95
2018-12-12T06:56:34.759Z,2.06
2018-12-12T06:59:01.927Z,2.04
2018-12-12T07:01:29.127Z,2.05
2018-12-12T07:03:57.002Z,2.13
2018-12-12T07:06:25.119Z,2.13
2018-12-12T07:08:55.982Z,2.20
2018-12-12T07:11:23.360Z,2.28
2018-12-12T07:13:52.943Z,2.31
2018-12-12T07:16:20.310Z,2.34
2018-12-12T07:18:47.623Z,2.42
2018-12-12T07:21:14.848Z,2.38
2018-12-12T07:23:42.268Z,2.37
2018-12-12T07:26:10.593Z,2.42
2018-12-12T07:31:45.423Z,2.56
2018-12-12T07:34:30.139Z,2.62
2018-12-12T07:36:57.983Z,2.76
2018-12-12T07:39:29.515Z,2.82
2018-12-12T07:41:59.237Z,2.82
2018-12-12T07:44:35.534Z,2.84
2018-12-12T07:47:04.048Z,2.88
2018-12-12T07:49:32.359Z,3.10
2018-12-12T07:52:00.216Z,3.01
2018-12-12T07:54:27.430Z,2.97
2018-12-12T07:56:54.531Z,3.05
2018-12-12T07:59:23.822Z,3.17
2018-12-12T08:01:51.057Z,3.13
2018-12-12T08:04:18.319Z,3.12
2018-12-12T08:06:45.768Z,3.19
2018-12-12T08:09:12.988Z,3.29
2018-12-12T08:11:40.112Z,3.28
2018-12-12T08:14:07.290Z,3.34
2018-12-12T08:16:34.506Z,3.44
2018-12-12T08:19:01.661Z,3.34
2018-12-12T08:21:28.768Z,3.41
2018-12-12T08:23:55.910Z,3.43
2018-12-12T08:26:22.990Z,3.42
2018-12-12T08:28:50.076Z,3.49
2018-12-12T08:31:17.244Z,3.50
2018-12-12T08:33:44.319Z,3.55
2018-12-12T08:36:11.435Z,3.64
2018-12-12T08:38:38.596Z,3.82
2018-12-12T08:41:05.683Z,3.74
2018-12-12T08:43:32.795Z,3.77
2018-12-12T08:45:59.939Z,3.86
2018-12-12T08:48:27.038Z,3.91
2018-12-12T08:50:54.124Z,3.83
2018-12-12T08:53:21.245Z,3.80
2018-12-12T08:55:48.353Z,3.86
2018-12-12T08:58:15.453Z,3.92
2018-12-12T09:00:42.624Z,3.95
2018-12-12T09:03:09.764Z,4.08
2018-12-12T09:05:36.967Z,4.11
2018-12-12T09:08:04.232Z,4.02
2018-12-12T09:10:31.345Z,4.21
2018-12-12T09:12:58.463Z,4.22
2018-12-12T09:15:25.616Z,4.24
2018-12-12T09:17:52.683Z,4.28
2018-12-12T09:20:19.751Z,4.23
2018-12-12T09:22:46.887Z,4.31
2018-12-12T09:25:13.949Z,4.34
2018-12-12T09:27:41.049Z,4.39
2018-12-12T09:30:08.330Z,4.37
2018-12-12T09:32:35.527Z,4.40
2018-12-12T09:35:02.657Z,4.50
2018-12-12T09:37:29.791Z,4.45
2018-12-12T09:39:56.875Z,4.64
2018-12-12T09:42:23.974Z,4.57
2018-12-12T09:44:51.196Z,4.83
2018-12-12T09:47:18.502Z,4.86
2018-12-12T09:49:45.729Z,4.93
2018-12-12T09:52:12.876Z,5.11
2018-12-12T09:54:40.083Z,5.20
2018-12-12T09:57:07.182Z,5.30
2018-12-12T09:59:34.363Z,5.38
2018-12-12T10:02:01.451Z,5.10
2018-12-12T10:04:28.544Z,5.05
2018-12-12T10:06:55.695Z,5.15
2018-12-12T10:09:22.869Z,5.20
2018-12-12T10:11:49.967Z,5.15
2018-12-12T10:14:17.148Z,5.24
2018-12-12T10:16:44.260Z,5.16
2018-12-12T10:19:11.362Z,5.07
2018-12-12T10:21:38.550Z,5.19
2018-12-12T10:24:05.643Z,5.24
2018-12-12T10:26:32.858Z,5.25
2018-12-12T10:29:00.131Z,5.18
2018-12-12T10:31:27.343Z,5.15
2018-12-12T10:33:54.535Z,5.25
2018-12-12T10:36:21.691Z,5.18
2018-12-12T10:38:48.791Z,5.27
2018-12-12T10:41:15.871Z,5.27
2018-12-12T10:43:43.051Z,5.21
2018-12-12T10:46:10.135Z,5.25
2018-12-12T10:48:37.220Z,5.33
2018-12-12T10:51:04.514Z,5.33
2018-12-12T10:53:31.639Z,5.37
2018-12-12T10:55:58.747Z,5.20
2018-12-12T10:58:25.943Z,5.32
2018-12-12T11:00:58.664Z,5.21
2018-12-12T11:03:31.449Z,5.25
2018-12-12T11:05:58.561Z,5.36
2018-12-12T11:08:26.726Z,5.39
2018-12-12T11:10:54.163Z,5.30
2018-12-12T11:13:21.384Z,5.45
2018-12-12T11:15:48.558Z,5.50
2018-12-12T11:18:16.051Z,5.38
2018-12-12T11:20:43.270Z,5.41
2018-12-12T11:23:10.452Z,5.45
2018-12-12T11:25:37.776Z,5.63
2018-12-12T11:28:05.007Z,5.60
2018-12-12T11:30:32.176Z,5.58
2018-12-12T11:32:59.397Z,5.60
2018-12-12T11:35:26.513Z,5.60
2018-12-12T11:37:53.616Z,5.54
2018-12-12T11:40:20.914Z,5.56
2018-12-12T11:42:48.104Z,5.59
2018-12-12T11:45:15.323Z,5.53
2018-12-12T11:47:43.209Z,5.47
2018-12-12T11:50:10.388Z,5.60
2018-12-12T11:52:37.511Z,5.61
2018-12-12T11:55:04.835Z,5.57
2018-12-12T11:57:32.268Z,5.71
2018-12-12T11:59:59.398Z,5.97
2018-12-12T12:02:26.598Z,6.10
2018-12-12T12:04:53.741Z,6.52
2018-12-12T12:07:20.975Z,6.56
2018-12-12T12:09:48.284Z,6.58
2018-12-12T12:12:15.518Z,6.51
2018-12-12T12:14:42.762Z,6.39
2018-12-12T12:17:09.985Z,6.21
2018-12-12T12:19:37.120Z,6.21
2018-12-12T12:22:04.235Z,6.05
2018-12-12T12:24:31.447Z,6.16
2018-12-12T12:26:58.561Z,6.09
2018-12-12T12:29:25.811Z,6.00
2018-12-12T12:31:53.016Z,6.06
2018-12-12T12:34:20.139Z,5.98
2018-12-12T12:36:47.730Z,5.87
2018-12-12T12:39:14.910Z,5.77
2018-12-12T12:41:42.074Z,5.41
2018-12-12T12:44:09.260Z,5.27
2018-12-12T12:46:36.461Z,5.18
2018-12-12T12:49:03.754Z,5.02
2018-12-12T12:51:31.009Z,4.99
2018-12-12T12:53:58.271Z,5.10
2018-12-12T12:56:25.412Z,5.02
2018-12-12T12:58:52.543Z,5.12
2018-12-12T13:01:19.835Z,5.06
2018-12-12T13:03:46.964Z,5.24
2018-12-12T13:06:14.112Z,5.24
2018-12-12T13:08:41.455Z,5.43
2018-12-12T13:11:14.674Z,5.17
2018-12-12T13:13:37.800Z,5.24
2018-12-12T13:16:05.024Z,5.08
2018-12-12T13:18:32.230Z,5.09
2018-12-12T13:20:59.371Z,5.21
2018-12-12T13:23:26.540Z,4.94
2018-12-12T13:25:53.790Z,4.93
2018-12-12T13:28:20.896Z,4.92
2018-12-12T13:30:48.066Z,4.74
2018-12-12T13:33:15.210Z,4.83
2018-12-12T13:35:42.408Z,4.73
2018-12-12T13:38:10.427Z,4.58
2018-12-12T13:40:37.652Z,4.49
2018-12-12T13:43:04.807Z,4.38
2018-12-12T13:45:33.127Z,4.15
2018-12-12T13:48:00.268Z,4.09
2018-12-12T13:50:27.387Z,4.08
2018-12-12T13:52:54.689Z,4.01
2018-12-12T13:55:21.836Z,3.98
2018-12-12T13:57:48.961Z,3.90
2018-12-12T14:00:16.627Z,3.99
2018-12-12T14:02:43.769Z,3.97
2018-12-12T14:05:10.938Z,3.85
2018-12-12T14:07:38.097Z,3.78
2018-12-12T14:12:30.233Z,3.81
2018-12-12T14:14:57.386Z,3.71
2018-12-12T14:17:24.506Z,3.56
2018-12-12T14:19:51.610Z,3.54
2018-12-12T14:22:18.801Z,3.51
2018-12-12T14:27:44.934Z,3.33
2018-12-12T14:30:12.137Z,3.22
2018-12-12T14:32:39.267Z,3.14
2018-12-12T14:35:06.459Z,3.03
2018-12-12T14:37:33.638Z,2.91
2018-12-12T14:40:00.733Z,2.80
2018-12-12T14:42:27.904Z,2.73
2018-12-12T14:44:55.001Z,2.65
2018-12-12T14:47:22.081Z,2.60
2018-12-12T14:49:49.299Z,2.50
2018-12-12T14:52:16.401Z,2.40
2018-12-12T14:54:43.494Z,2.29
2018-12-12T14:57:10.746Z,2.18
2018-12-12T14:59:37.923Z,2.13
2018-12-12T15:02:05.104Z,2.06
2018-12-12T15:04:35.916Z,2.01
2018-12-12T15:07:04.247Z,1.94
2018-12-12T15:09:31.439Z,1.88
2018-12-12T15:11:58.617Z,1.83
2018-12-12T15:14:25.759Z,1.83
2018-12-12T15:16:53.059Z,1.83
2018-12-12T15:19:20.156Z,1.82
2018-12-12T15:21:47.296Z,1.91
2018-12-12T15:24:14.479Z,1.87
2018-12-12T15:26:41.559Z,1.86
2018-12-12T15:29:08.671Z,1.87
2018-12-12T15:31:36.123Z,1.88
2018-12-12T15:34:03.359Z,1.91
2018-12-12T15:36:30.614Z,1.88
2018-12-12T15:41:55.070Z,1.92
2018-12-12T15:44:22.651Z,1.97
2018-12-12T15:46:49.827Z,2.16
2018-12-12T15:49:17.387Z,2.11
2018-12-12T15:51:44.531Z,2.11
2018-12-12T15:54:11.715Z,2.20
2018-12-12T15:56:38.875Z,2.21
2018-12-12T15:59:06.035Z,2.20
2018-12-12T16:01:33.243Z,2.20
2018-12-12T16:04:00.445Z,2.25
2018-12-12T16:06:27.555Z,2.36
2018-12-12T16:08:54.718Z,2.32
2018-12-12T16:11:21.951Z,2.33
2018-12-12T16:13:49.079Z,2.36
2018-12-12T16:16:16.282Z,2.41
2018-12-12T16:18:43.511Z,2.43
2018-12-12T16:21:10.644Z,2.43
2018-12-12T16:23:37.802Z,2.39
2018-12-12T16:26:05.066Z,2.40
2018-12-12T16:28:32.192Z,2.42
2018-12-12T16:30:59.307Z,2.42
2018-12-12T16:33:26.650Z,2.46
2018-12-12T16:35:53.754Z,2.49
2018-12-12T16:38:20.960Z,2.54
2018-12-12T16:40:48.115Z,2.46
2018-12-12T16:43:15.358Z,2.50
2018-12-12T16:45:42.447Z,2.53
2018-12-12T16:48:09.624Z,2.55
2018-12-12T16:50:36.748Z,2.63
2018-12-12T16:53:03.823Z,2.48
2018-12-12T16:55:31.015Z,2.42
2018-12-12T16:57:58.110Z,2.39
2018-12-12T17:00:25.249Z,2.34
2018-12-12T17:02:52.412Z,2.28
2018-12-12T17:05:19.502Z,2.23
2018-12-12T17:07:46.612Z,2.19
2018-12-12T17:10:13.904Z,2.17
2018-12-12T17:12:41.008Z,2.17
2018-12-12T17:15:08.199Z,2.10
2018-12-12T17:17:35.464Z,2.07
2018-12-12T17:20:02.739Z,2.04
2018-12-12T17:22:29.958Z,2.00
2018-12-12T17:24:57.126Z,1.96
2018-12-12T17:27:24.227Z,1.85
2018-12-12T17:29:51.325Z,1.81
2018-12-12T17:32:18.482Z,1.71
2018-12-12T17:34:45.579Z,1.69
2018-12-12T17:37:12.779Z,1.64
2018-12-12T17:39:40.027Z,1.61
2018-12-12T17:42:07.235Z,1.58
2018-12-12T17:44:34.535Z,1.50
2018-12-12T17:47:01.795Z,1.46
2018-12-12T17:49:28.908Z,1.39
2018-12-12T17:51:56.115Z,1.36
2018-12-12T17:54:23.393Z,1.30
2018-12-12T17:56:50.508Z,1.28
2018-12-12T17:59:17.623Z,1.24
2018-12-12T18:01:44.978Z,1.18
2018-12-12T18:04:12.066Z,1.18
2018-12-12T18:06:39.187Z,1.19
2018-12-12T18:09:07.363Z,1.12
2018-12-12T18:11:34.616Z,1.17
2018-12-12T18:14:01.748Z,1.13
2018-12-12T18:16:28.996Z,1.12
2018-12-12T18:18:56.225Z,1.16
2018-12-12T18:21:23.347Z,1.16
2018-12-12T18:23:50.736Z,1.15
2018-12-12T18:26:17.947Z,1.18
2018-12-12T18:28:45.111Z,1.16
2018-12-12T18:31:12.330Z,1.15
2018-12-12T18:33:39.789Z,1.12
2018-12-12T18:36:06.953Z,1.12
2018-12-12T18:38:34.212Z,1.11
2018-12-12T18:41:01.344Z,1.07
2018-12-12T18:43:29.253Z,1.06
2018-12-12T18:45:56.575Z,1.13
2018-12-12T18:48:23.967Z,1.16
2018-12-12T18:50:52.182Z,1.11
2018-12-12T18:53:19.352Z,1.15
2018-12-12T18:55:46.475Z,1.13
2018-12-12T18:58:13.602Z,1.18
2018-12-12T19:00:40.782Z,1.23
2018-12-12T19:03:07.875Z,1.20
2018-12-12T19:05:34.977Z,1.17
2018-12-12T19:08:02.196Z,1.16
2018-12-12T19:10:29.297Z,1.13
2018-12-12T19:15:21.527Z,1.11
2018-12-12T19:17:48.627Z,1.03
2018-12-12T19:20:15.744Z,1.00
2018-12-12T19:22:43.326Z,0.95
2018-12-12T19:25:10.548Z,0.96
2018-12-12T19:27:37.688Z,1.01
2018-12-12T19:30:05.412Z,0.99
2018-12-12T19:32:32.524Z,1.03
2018-12-12T19:34:59.699Z,1.04
2018-12-12T19:37:26.982Z,0.99
2018-12-12T19:39:54.131Z,1.02
2018-12-12T19:42:21.413Z,1.00
2018-12-12T19:44:48.666Z,1.00
2018-12-12T19:47:16.201Z,1.03
2018-12-12T19:49:43.368Z,0.95
2018-12-12T19:52:10.531Z,0.90
2018-12-12T19:54:37.638Z,0.86
2018-12-12T19:57:04.839Z,0.84
2018-12-12T19:59:32.111Z,0.87
2018-12-12T20:01:59.301Z,0.88
2018-12-12T20:04:27.488Z,0.81
2018-12-12T20:06:54.763Z,0.80
2018-12-12T20:09:21.879Z,0.78
2018-12-12T20:11:49.316Z,0.83
2018-12-12T20:14:16.550Z,0.94
2018-12-12T20:16:43.752Z,0.92
2018-12-12T20:19:10.858Z,0.92
2018-12-12T20:21:38.194Z,1.08
2018-12-12T20:24:05.315Z,1.08
2018-12-12T20:26:32.414Z,1.12
2018-12-12T20:28:59.581Z,1.21
2018-12-12T20:31:26.693Z,1.36
2018-12-12T20:33:53.818Z,1.38
2018-12-12T20:36:21.029Z,1.34
2018-12-12T20:38:48.124Z,1.39
2018-12-12T20:41:15.229Z,1.40
2018-12-12T20:43:42.366Z,1.39
2018-12-12T20:46:09.515Z,1.51
2018-12-12T20:48:36.715Z,1.57
2018-12-12T20:51:03.950Z,1.51
2018-12-12T20:53:31.064Z,1.56
2018-12-12T20:55:58.224Z,1.56
2018-12-12T20:58:25.399Z,1.62
2018-12-12T21:00:52.510Z,1.60
2018-12-12T21:03:19.616Z,1.63
2018-12-12T21:05:46.784Z,1.66
2018-12-12T21:08:13.923Z,1.68
2018-12-12T21:10:41.066Z,1.64
2018-12-12T21:13:08.259Z,1.73
2018-12-12T21:15:35.359Z,1.81
2018-12-12T21:18:02.542Z,1.81
2018-12-12T21:20:29.737Z,1.81
2018-12-12T21:22:56.867Z,1.85
2018-12-12T21:25:25.923Z,1.81
2018-12-12T21:27:53.216Z,1.82
2018-12-12T21:30:20.420Z,1.93
2018-12-12T21:32:47.570Z,1.90
2018-12-12T21:35:14.799Z,1.81
2018-12-12T21:37:41.918Z,1.86
2018-12-12T21:40:09.196Z,1.83
2018-12-12T21:42:36.456Z,1.93
2018-12-12T21:45:03.820Z,1.85
2018-12-12T21:47:30.934Z,1.93
2018-12-12T21:49:58.266Z,1.92
2018-12-12T21:52:25.390Z,1.92
2018-12-12T21:54:52.536Z,1.90
2018-12-12T21:57:19.768Z,1.93
2018-12-12T21:59:46.914Z,1.96
2018-12-12T22:02:14.003Z,1.97
2018-12-12T22:04:41.297Z,1.97
2018-12-12T22:07:08.406Z,2.01
2018-12-12T22:09:35.538Z,2.04
2018-12-12T22:12:02.711Z,2.03
2018-12-12T22:14:29.848Z,2.02
2018-12-12T22:16:56.944Z,2.13
2018-12-12T22:19:24.111Z,2.08
2018-12-12T22:21:51.323Z,2.13
2018-12-12T22:24:18.439Z,2.24
2018-12-12T22:26:45.611Z,2.28
2018-12-12T22:29:12.792Z,2.20
2018-12-12T22:31:39.899Z,2.22
2018-12-12T22:34:07.224Z,2.19
2018-12-12T22:36:34.441Z,2.20
2018-12-12T22:39:01.548Z,2.20
2018-12-12T22:41:28.729Z,2.31
2018-12-12T22:43:55.835Z,2.37
2018-12-12T22:46:22.942Z,2.26
2018-12-12T22:48:50.124Z,2.29
2018-12-12T22:51:17.316Z,2.23
2018-12-12T22:53:44.417Z,2.28
2018-12-12T22:56:11.601Z,2.30
2018-12-12T22:58:38.701Z,2.35
2018-12-12T23:01:09.906Z,2.31
2018-12-12T23:03:37.103Z,2.40
2018-12-12T23:06:04.223Z,2.47
2018-12-12T23:08:31.328Z,2.41
2018-12-12T23:10:58.505Z,2.44
2018-12-12T23:13:25.636Z,2.46
2018-12-12T23:15:52.761Z,2.42
2018-12-12T23:18:19.930Z,2.42
2018-12-12T23:20:47.069Z,2.50
2018-12-12T23:23:14.268Z,2.44
2018-12-12T23:25:41.425Z,2.45
2018-12-12T23:28:08.534Z,2.43
2018-12-12T23:30:35.711Z,2.44
2018-12-12T23:33:02.906Z,2.49
2018-12-12T23:35:30.008Z,2.43
2018-12-12T23:37:57.115Z,2.39
2018-12-12T23:40:24.281Z,2.39
2018-12-12T23:42:51.408Z,2.45
2018-12-12T23:45:18.510Z,2.49
2018-12-12T23:47:45.678Z,2.50
2018-12-12T23:50:12.804Z,2.56
2018-12-12T23:52:40.118Z,2.57
2018-12-12T23:55:07.426Z,2.60
2018-12-12T23:57:34.542Z,2.43
